Terminal Aerodrome Forecast
Issued by NWS Portland, ME

Home | Current Version | Previous Version | Text Only | Print | Product List | Glossary On
Versions: 1 2 3 4 5 6 7 8 9 10 11 12 13 14 15 16 17 18 19 20 21 22 23 24 25 26 27 28 29
000
FTUS41 KGYX 230530
TAFPWM
TAF
KPWM 230530Z 2306/2406 03016G30KT 5SM -RA SCT007 OVC012
      WS020/04055KT
     FM230800 03017G30KT 3SM RA BR OVC004 WS020/04060KT
     FM231500 03015G28KT 5SM -RA BR OVC007
     FM231800 02015G28KT P6SM -SHRA OVC012=

USA.gov is the U.S. government's official web portal to all federal, state and local government web resources and services.